Lebec, CA (93243)

6:56 AM PDT on August 02, 2015 (GMT -0700)
Tejon Ranch | | Change Station
CLOSE
Current Station
Personal Weather Station
Location: Lebec, CA
Elevation: 3527 ft
Nearby Weather Stations

Elev 3527 ft 34.84 °N, 118.86 °W | Updated 33 seconds ago

Clear
Clear
57.2 °F
Feels Like 57.2 °F
N
1.4
Wind Variable Wind from SSW
Gusts 3.0 mph

Today
High -- | Low -- °F
--% Chance of Precip.
Yesterday
High -- | Low -- °F
Precip. -- in
6:05 AM 7:57 PM
Waning Gibbous, 94% visible
Pressure 29.92 in
Visibility 10.0 miles
Clouds Clear
Dew Point 50 °F
Humidity 78%
Rainfall 0.00 in
Snow Depth Not available.
UV 0 out of 12
Pollen 5.60 out of 12
Air Quality Not available.
Flu Activity Not available.
METAR KSDB 021348Z AUTO 33009KT 10SM CLR 22/08 A3010 RMK AO2 SLP130 T02170078

More Conditions Fewer Conditions

Pressure 29.92 in
Visibility 10.0 miles
Clouds Clear
Dew Point 50 °F
Humidity 78%
Rainfall 0.00 in
Snow Depth Not available.
UV 0 out of 12
Pollen 5.60 out of 12
Air Quality Not available.
Flu Activity Not available.
METAR KSDB 021348Z AUTO 33009KT 10SM CLR 22/08 A3010 RMK AO2 SLP130 T02170078

More Conditions Fewer Conditions

10-Day Weather Forecast

×

Almanac

Astronomy

Aug. 02, 2015 Rise Set
Actual Time
Civil Twilight
Nautical Twilight
Astronomical Twilight
Moon
Length of Visible Light
Length of Day
Tomorrow will be .
, % of the Moon is Illuminated

Today's Extremes

State Highs State Lows

Community

WunderPhotos

Upload Photos

1,843,254 photos uploaded!

WunderBlogs® & News

Nearby

Air Quality

  Air Quality AQ Index Pollutant
Not available.

Snow Depth

Station Depth Elevation

Earthquake Activity

City Distance Mag. Time & Date
Minimum magnitude displayed is 2.5.

Coastal Water Temperatures

Place Temperature

Stations

Nearby Weather Stations

Station Location Temp. Windchill Dew Point Humidity Wind Precip. Elev Updated Type